sensor_id;sensor_type;location;lat;lon;timestamp;temperature;humidity
10306;DHT22;5198;52.382;9.020;2023-06-10T00:03:38;19.80;96.70
10306;DHT22;5198;52.382;9.020;2023-06-10T00:07:43;19.70;96.50
10306;DHT22;5198;52.382;9.020;2023-06-10T00:11:47;19.50;97.10
10306;DHT22;5198;52.382;9.020;2023-06-10T00:15:51;19.40;97.20
10306;DHT22;5198;52.382;9.020;2023-06-10T00:19:55;19.30;97.30
10306;DHT22;5198;52.382;9.020;2023-06-10T00:23:59;19.20;96.80
10306;DHT22;5198;52.382;9.020;2023-06-10T00:28:04;19.10;97.30
10306;DHT22;5198;52.382;9.020;2023-06-10T00:32:07;19.00;97.40
10306;DHT22;5198;52.382;9.020;2023-06-10T00:36:12;18.90;97.70
10306;DHT22;5198;52.382;9.020;2023-06-10T00:40:16;18.80;97.60
10306;DHT22;5198;52.382;9.020;2023-06-10T00:44:19;18.70;97.70
10306;DHT22;5198;52.382;9.020;2023-06-10T00:48:21;18.60;97.70
10306;DHT22;5198;52.382;9.020;2023-06-10T00:52:27;18.50;97.70
10306;DHT22;5198;52.382;9.020;2023-06-10T00:56:30;18.40;97.80
10306;DHT22;5198;52.382;9.020;2023-06-10T01:00:34;18.30;97.70
10306;DHT22;5198;52.382;9.020;2023-06-10T01:04:37;18.20;97.60
10306;DHT22;5198;52.382;9.020;2023-06-10T01:08:45;18.10;97.90
10306;DHT22;5198;52.382;9.020;2023-06-10T01:12:52;18.00;97.40
10306;DHT22;5198;52.382;9.020;2023-06-10T01:16:58;18.00;97.50
10306;DHT22;5198;52.382;9.020;2023-06-10T01:21:02;17.90;97.80
10306;DHT22;5198;52.382;9.020;2023-06-10T01:25:06;17.80;98.00
10306;DHT22;5198;52.382;9.020;2023-06-10T01:29:11;17.70;97.90
10306;DHT22;5198;52.382;9.020;2023-06-10T01:33:17;17.60;97.40
10306;DHT22;5198;52.382;9.020;2023-06-10T01:37:21;17.60;97.60
10306;DHT22;5198;52.382;9.020;2023-06-10T01:41:27;17.50;97.70
10306;DHT22;5198;52.382;9.020;2023-06-10T01:45:31;17.40;97.70
10306;DHT22;5198;52.382;9.020;2023-06-10T01:49:34;17.30;97.90
10306;DHT22;5198;52.382;9.020;2023-06-10T01:53:37;17.20;97.80
10306;DHT22;5198;52.382;9.020;2023-06-10T01:57:41;17.10;98.00
10306;DHT22;5198;52.382;9.020;2023-06-10T02:01:44;17.10;97.60
10306;DHT22;5198;52.382;9.020;2023-06-10T02:05:46;17.00;97.30
10306;DHT22;5198;52.382;9.020;2023-06-10T02:09:49;16.90;97.70
10306;DHT22;5198;52.382;9.020;2023-06-10T02:13:53;16.80;97.60
10306;DHT22;5198;52.382;9.020;2023-06-10T02:17:56;16.70;97.60
10306;DHT22;5198;52.382;9.020;2023-06-10T02:21:59;16.70;98.20
10306;DHT22;5198;52.382;9.020;2023-06-10T02:26:02;16.60;97.50
10306;DHT22;5198;52.382;9.020;2023-06-10T02:30:08;16.60;97.80
10306;DHT22;5198;52.382;9.020;2023-06-10T02:34:12;16.50;97.60
10306;DHT22;5198;52.382;9.020;2023-06-10T02:38:15;16.40;97.60
10306;DHT22;5198;52.382;9.020;2023-06-10T02:42:18;16.40;97.50
10306;DHT22;5198;52.382;9.020;2023-06-10T02:46:22;16.30;97.50
10306;DHT22;5198;52.382;9.020;2023-06-10T02:50:25;16.30;97.80
10306;DHT22;5198;52.382;9.020;2023-06-10T02:54:28;16.20;97.40
10306;DHT22;5198;52.382;9.020;2023-06-10T02:58:31;16.20;97.70
10306;DHT22;5198;52.382;9.020;2023-06-10T03:02:35;16.10;97.80
10306;DHT22;5198;52.382;9.020;2023-06-10T03:06:38;16.10;98.00
10306;DHT22;5198;52.382;9.020;2023-06-10T03:10:42;16.00;97.10
10306;DHT22;5198;52.382;9.020;2023-06-10T03:14:45;16.00;97.90
10306;DHT22;5198;52.382;9.020;2023-06-10T03:18:49;15.90;97.80
10306;DHT22;5198;52.382;9.020;2023-06-10T03:22:52;15.90;98.00
10306;DHT22;5198;52.382;9.020;2023-06-10T03:26:55;15.90;97.80
10306;DHT22;5198;52.382;9.020;2023-06-10T03:30:58;15.80;97.30
10306;DHT22;5198;52.382;9.020;2023-06-10T03:35:03;15.80;97.60
10306;DHT22;5198;52.382;9.020;2023-06-10T03:39:07;15.80;97.40
10306;DHT22;5198;52.382;9.020;2023-06-10T03:43:11;15.80;97.90
10306;DHT22;5198;52.382;9.020;2023-06-10T03:47:14;15.80;96.80
10306;DHT22;5198;52.382;9.020;2023-06-10T03:51:19;15.80;97.20
10306;DHT22;5198;52.382;9.020;2023-06-10T03:55:22;15.80;97.20
10306;DHT22;5198;52.382;9.020;2023-06-10T03:59:25;15.80;97.20
10306;DHT22;5198;52.382;9.020;2023-06-10T04:03:28;15.80;96.60
10306;DHT22;5198;52.382;9.020;2023-06-10T04:07:32;15.80;96.90
10306;DHT22;5198;52.382;9.020;2023-06-10T04:11:36;15.80;96.70
10306;DHT22;5198;52.382;9.020;2023-06-10T04:15:39;15.90;96.90
10306;DHT22;5198;52.382;9.020;2023-06-10T04:19:42;15.90;96.50
10306;DHT22;5198;52.382;9.020;2023-06-10T04:23:46;15.90;96.10
10306;DHT22;5198;52.382;9.020;2023-06-10T04:27:50;15.90;96.50
10306;DHT22;5198;52.382;9.020;2023-06-10T04:31:53;15.90;96.30
10306;DHT22;5198;52.382;9.020;2023-06-10T04:35:56;15.90;97.10
10306;DHT22;5198;52.382;9.020;2023-06-10T04:40:01;16.00;96.70
10306;DHT22;5198;52.382;9.020;2023-06-10T04:44:05;16.00;96.50
10306;DHT22;5198;52.382;9.020;2023-06-10T04:48:08;16.00;96.50
10306;DHT22;5198;52.382;9.020;2023-06-10T04:52:12;16.00;96.40
10306;DHT22;5198;52.382;9.020;2023-06-10T04:56:21;16.10;96.40
10306;DHT22;5198;52.382;9.020;2023-06-10T05:00:24;16.10;96.60
10306;DHT22;5198;52.382;9.020;2023-06-10T05:04:27;16.10;96.30
10306;DHT22;5198;52.382;9.020;2023-06-10T05:08:31;16.20;96.30
10306;DHT22;5198;52.382;9.020;2023-06-10T05:12:35;16.20;96.60
10306;DHT22;5198;52.382;9.020;2023-06-10T05:16:40;16.30;96.20
10306;DHT22;5198;52.382;9.020;2023-06-10T05:20:43;16.30;96.80
10306;DHT22;5198;52.382;9.020;2023-06-10T05:24:46;16.30;96.60
10306;DHT22;5198;52.382;9.020;2023-06-10T05:28:50;16.40;96.40
10306;DHT22;5198;52.382;9.020;2023-06-10T05:32:55;16.40;96.50
10306;DHT22;5198;52.382;9.020;2023-06-10T05:36:58;16.40;96.60
10306;DHT22;5198;52.382;9.020;2023-06-10T05:41:01;16.50;96.90
10306;DHT22;5198;52.382;9.020;2023-06-10T05:45:08;16.50;96.70
10306;DHT22;5198;52.382;9.020;2023-06-10T05:49:11;16.60;97.90
10306;DHT22;5198;52.382;9.020;2023-06-10T05:53:14;16.60;98.20
10306;DHT22;5198;52.382;9.020;2023-06-10T05:57:17;16.70;97.70
10306;DHT22;5198;52.382;9.020;2023-06-10T06:01:22;16.70;98.00
10306;DHT22;5198;52.382;9.020;2023-06-10T06:05:25;16.80;97.90
10306;DHT22;5198;52.382;9.020;2023-06-10T06:09:28;16.80;97.70
10306;DHT22;5198;52.382;9.020;2023-06-10T06:13:33;16.80;97.70
10306;DHT22;5198;52.382;9.020;2023-06-10T06:17:38;16.90;97.70
10306;DHT22;5198;52.382;9.020;2023-06-10T06:21:41;16.90;97.90
10306;DHT22;5198;52.382;9.020;2023-06-10T06:25:44;16.90;97.60
10306;DHT22;5198;52.382;9.020;2023-06-10T06:29:47;17.00;97.70
10306;DHT22;5198;52.382;9.020;2023-06-10T06:33:52;17.10;97.50
10306;DHT22;5198;52.382;9.020;2023-06-10T06:37:55;17.10;97.50
10306;DHT22;5198;52.382;9.020;2023-06-10T06:41:58;17.20;97.60
10306;DHT22;5198;52.382;9.020;2023-06-10T06:46:01;17.30;97.50
10306;DHT22;5198;52.382;9.020;2023-06-10T06:50:06;17.30;98.00
10306;DHT22;5198;52.382;9.020;2023-06-10T06:54:09;17.40;97.60
10306;DHT22;5198;52.382;9.020;2023-06-10T06:58:13;17.50;97.90
10306;DHT22;5198;52.382;9.020;2023-06-10T07:02:17;17.60;97.80
10306;DHT22;5198;52.382;9.020;2023-06-10T07:06:22;17.70;97.70
10306;DHT22;5198;52.382;9.020;2023-06-10T07:10:27;17.80;98.60
10306;DHT22;5198;52.382;9.020;2023-06-10T07:14:30;17.80;98.40
10306;DHT22;5198;52.382;9.020;2023-06-10T07:18:33;17.90;98.30
10306;DHT22;5198;52.382;9.020;2023-06-10T07:22:37;18.00;98.00
10306;DHT22;5198;52.382;9.020;2023-06-10T07:26:41;18.10;98.70
10306;DHT22;5198;52.382;9.020;2023-06-10T07:30:44;18.20;99.00
10306;DHT22;5198;52.382;9.020;2023-06-10T07:34:47;18.30;98.40
10306;DHT22;5198;52.382;9.020;2023-06-10T07:38:51;18.40;98.70
10306;DHT22;5198;52.382;9.020;2023-06-10T07:42:55;18.40;98.30
10306;DHT22;5198;52.382;9.020;2023-06-10T07:46:58;18.60;99.10
10306;DHT22;5198;52.382;9.020;2023-06-10T07:51:02;18.70;99.00
10306;DHT22;5198;52.382;9.020;2023-06-10T07:55:12;18.70;98.40
10306;DHT22;5198;52.382;9.020;2023-06-10T07:59:16;18.90;99.50
10306;DHT22;5198;52.382;9.020;2023-06-10T08:03:19;19.00;98.80
10306;DHT22;5198;52.382;9.020;2023-06-10T08:07:22;19.10;98.90
10306;DHT22;5198;52.382;9.020;2023-06-10T08:11:26;19.20;99.90
10306;DHT22;5198;52.382;9.020;2023-06-10T08:15:31;19.30;99.60
10306;DHT22;5198;52.382;9.020;2023-06-10T08:19:34;19.50;99.70
10306;DHT22;5198;52.382;9.020;2023-06-10T08:23:39;19.60;99.20
10306;DHT22;5198;52.382;9.020;2023-06-10T08:27:43;19.70;99.90
10306;DHT22;5198;52.382;9.020;2023-06-10T08:31:46;19.80;99.80
10306;DHT22;5198;52.382;9.020;2023-06-10T08:35:50;20.00;99.30
10306;DHT22;5198;52.382;9.020;2023-06-10T08:39:53;20.20;99.90
10306;DHT22;5198;52.382;9.020;2023-06-10T08:44:04;20.30;99.20
10306;DHT22;5198;52.382;9.020;2023-06-10T08:48:10;20.50;99.70
10306;DHT22;5198;52.382;9.020;2023-06-10T08:52:16;20.60;99.20
10306;DHT22;5198;52.382;9.020;2023-06-10T08:56:21;20.80;99.30
10306;DHT22;5198;52.382;9.020;2023-06-10T09:00:26;21.00;99.60
10306;DHT22;5198;52.382;9.020;2023-06-10T09:04:30;21.10;99.50
10306;DHT22;5198;52.382;9.020;2023-06-10T09:08:34;21.30;99.70
10306;DHT22;5198;52.382;9.020;2023-06-10T09:12:37;21.50;99.70
10306;DHT22;5198;52.382;9.020;2023-06-10T09:16:41;21.70;99.80
10306;DHT22;5198;52.382;9.020;2023-06-10T09:20:45;22.00;99.90
10306;DHT22;5198;52.382;9.020;2023-06-10T09:24:48;22.20;99.80
10306;DHT22;5198;52.382;9.020;2023-06-10T09:28:51;22.50;99.90
10306;DHT22;5198;52.382;9.020;2023-06-10T09:32:56;22.80;99.90
10306;DHT22;5198;52.382;9.020;2023-06-10T09:36:59;23.10;99.90
10306;DHT22;5198;52.382;9.020;2023-06-10T09:41:03;23.40;99.90
10306;DHT22;5198;52.382;9.020;2023-06-10T09:45:07;23.70;99.90
10306;DHT22;5198;52.382;9.020;2023-06-10T09:49:13;24.00;99.90
10306;DHT22;5198;52.382;9.020;2023-06-10T09:53:17;24.30;99.90
10306;DHT22;5198;52.382;9.020;2023-06-10T09:57:21;24.60;99.90
10306;DHT22;5198;52.382;9.020;2023-06-10T10:01:24;24.90;99.90
10306;DHT22;5198;52.382;9.020;2023-06-10T10:05:29;25.30;99.90
10306;DHT22;5198;52.382;9.020;2023-06-10T10:09:32;25.50;99.90
10306;DHT22;5198;52.382;9.020;2023-06-10T10:13:36;25.80;99.90
10306;DHT22;5198;52.382;9.020;2023-06-10T10:17:42;26.10;99.90
10306;DHT22;5198;52.382;9.020;2023-06-10T10:21:52;26.40;99.90
10306;DHT22;5198;52.382;9.020;2023-06-10T10:25:57;26.70;99.90
10306;DHT22;5198;52.382;9.020;2023-06-10T10:30:04;26.90;99.90
10306;DHT22;5198;52.382;9.020;2023-06-10T10:34:15;27.20;99.90
10306;DHT22;5198;52.382;9.020;2023-06-10T10:38:21;27.40;99.90
10306;DHT22;5198;52.382;9.020;2023-06-10T10:42:25;27.60;99.90
10306;DHT22;5198;52.382;9.020;2023-06-10T10:46:30;27.90;99.70
10306;DHT22;5198;52.382;9.020;2023-06-10T10:50:33;28.00;99.90
10306;DHT22;5198;52.382;9.020;2023-06-10T10:54:39;28.30;99.90
10306;DHT22;5198;52.382;9.020;2023-06-10T10:59:03;28.40;99.90
10306;DHT22;5198;52.382;9.020;2023-06-10T11:03:15;28.70;99.90
10306;DHT22;5198;52.382;9.020;2023-06-10T11:07:20;28.90;99.90
10306;DHT22;5198;52.382;9.020;2023-06-10T11:11:27;29.10;99.60
10306;DHT22;5198;52.382;9.020;2023-06-10T11:15:30;29.30;99.50
10306;DHT22;5198;52.382;9.020;2023-06-10T11:19:34;29.40;98.50
10306;DHT22;5198;52.382;9.020;2023-06-10T11:24:11;29.60;98.90
10306;DHT22;5198;52.382;9.020;2023-06-10T11:52:52;30.90;98.00
10306;DHT22;5198;52.382;9.020;2023-06-10T11:56:58;30.80;98.20
10306;DHT22;5198;52.382;9.020;2023-06-10T12:01:03;31.10;98.70
10306;DHT22;5198;52.382;9.020;2023-06-10T12:05:13;31.20;98.20
10306;DHT22;5198;52.382;9.020;2023-06-10T12:09:19;31.40;98.40
10306;DHT22;5198;52.382;9.020;2023-06-10T12:13:28;31.50;98.50
10306;DHT22;5198;52.382;9.020;2023-06-10T12:17:38;31.60;98.00
10306;DHT22;5198;52.382;9.020;2023-06-10T12:21:41;31.80;98.40
10306;DHT22;5198;52.382;9.020;2023-06-10T12:25:54;31.90;97.90
10306;DHT22;5198;52.382;9.020;2023-06-10T12:29:58;32.10;97.60
10306;DHT22;5198;52.382;9.020;2023-06-10T12:34:09;32.20;97.40
10306;DHT22;5198;52.382;9.020;2023-06-10T12:38:13;32.30;97.40
10306;DHT22;5198;52.382;9.020;2023-06-10T12:42:16;32.40;97.70
10306;DHT22;5198;52.382;9.020;2023-06-10T12:46:19;32.40;97.70
10306;DHT22;5198;52.382;9.020;2023-06-10T12:50:24;32.60;97.70
10306;DHT22;5198;52.382;9.020;2023-06-10T12:54:27;32.60;97.60
10306;DHT22;5198;52.382;9.020;2023-06-10T12:58:30;32.80;97.10
10306;DHT22;5198;52.382;9.020;2023-06-10T13:02:34;32.80;97.70
10306;DHT22;5198;52.382;9.020;2023-06-10T13:06:38;32.90;97.30
10306;DHT22;5198;52.382;9.020;2023-06-10T13:10:41;33.00;97.60
10306;DHT22;5198;52.382;9.020;2023-06-10T13:14:44;33.10;97.60
10306;DHT22;5198;52.382;9.020;2023-06-10T13:18:47;33.20;97.20
10306;DHT22;5198;52.382;9.020;2023-06-10T16:58:08;34.20;92.00
10306;DHT22;5198;52.382;9.020;2023-06-10T17:02:11;34.20;92.20
10306;DHT22;5198;52.382;9.020;2023-06-10T17:06:14;34.00;92.20
10306;DHT22;5198;52.382;9.020;2023-06-10T17:10:19;33.70;92.40
10306;DHT22;5198;52.382;9.020;2023-06-10T17:14:22;33.40;92.10
10306;DHT22;5198;52.382;9.020;2023-06-10T17:18:26;33.20;91.30
10306;DHT22;5198;52.382;9.020;2023-06-10T17:22:30;32.80;91.90
10306;DHT22;5198;52.382;9.020;2023-06-10T17:26:34;32.70;92.10
10306;DHT22;5198;52.382;9.020;2023-06-10T17:30:37;32.30;92.10
10306;DHT22;5198;52.382;9.020;2023-06-10T17:34:40;32.10;92.20
10306;DHT22;5198;52.382;9.020;2023-06-10T17:38:43;32.10;92.50
10306;DHT22;5198;52.382;9.020;2023-06-10T17:43:02;31.80;91.70
10306;DHT22;5198;52.382;9.020;2023-06-10T17:47:05;31.70;92.50
10306;DHT22;5198;52.382;9.020;2023-06-10T17:51:09;31.60;92.30
10306;DHT22;5198;52.382;9.020;2023-06-10T17:55:12;31.40;92.40
10306;DHT22;5198;52.382;9.020;2023-06-10T17:59:18;31.10;92.20
10306;DHT22;5198;52.382;9.020;2023-06-10T18:03:21;31.00;92.80
10306;DHT22;5198;52.382;9.020;2023-06-10T18:07:42;30.80;92.50
10306;DHT22;5198;52.382;9.020;2023-06-10T18:11:45;29.30;92.00
10306;DHT22;5198;52.382;9.020;2023-06-10T18:15:49;30.50;92.50
10306;DHT22;5198;52.382;9.020;2023-06-10T18:19:53;30.30;92.40
10306;DHT22;5198;52.382;9.020;2023-06-10T18:23:56;30.00;92.10
10306;DHT22;5198;52.382;9.020;2023-06-10T18:27:59;29.70;92.20
10306;DHT22;5198;52.382;9.020;2023-06-10T18:32:04;29.40;92.20
10306;DHT22;5198;52.382;9.020;2023-06-10T18:36:08;29.10;92.20
10306;DHT22;5198;52.382;9.020;2023-06-10T18:40:11;28.80;92.30
10306;DHT22;5198;52.382;9.020;2023-06-10T18:44:15;28.30;92.00
10306;DHT22;5198;52.382;9.020;2023-06-10T18:48:19;28.20;92.00
10306;DHT22;5198;52.382;9.020;2023-06-10T18:52:22;28.00;92.20
10306;DHT22;5198;52.382;9.020;2023-06-10T18:56:25;27.80;92.10
10306;DHT22;5198;52.382;9.020;2023-06-10T19:00:29;27.60;92.20
10306;DHT22;5198;52.382;9.020;2023-06-10T19:04:33;27.40;92.20
10306;DHT22;5198;52.382;9.020;2023-06-10T19:08:36;27.20;92.20
10306;DHT22;5198;52.382;9.020;2023-06-10T19:12:39;27.00;92.40
10306;DHT22;5198;52.382;9.020;2023-06-10T19:16:42;26.80;92.30
10306;DHT22;5198;52.382;9.020;2023-06-10T19:20:46;26.70;92.30
10306;DHT22;5198;52.382;9.020;2023-06-10T19:24:57;26.60;92.30
10306;DHT22;5198;52.382;9.020;2023-06-10T19:29:00;26.40;92.40
10306;DHT22;5198;52.382;9.020;2023-06-10T19:33:04;26.30;92.60
10306;DHT22;5198;52.382;9.020;2023-06-10T19:37:13;26.20;92.30
10306;DHT22;5198;52.382;9.020;2023-06-10T19:41:16;26.10;92.50
10306;DHT22;5198;52.382;9.020;2023-06-10T19:45:22;26.00;92.50
10306;DHT22;5198;52.382;9.020;2023-06-10T19:49:25;25.80;92.50
10306;DHT22;5198;52.382;9.020;2023-06-10T19:53:29;25.70;92.50
10306;DHT22;5198;52.382;9.020;2023-06-10T19:57:32;25.60;92.60
10306;DHT22;5198;52.382;9.020;2023-06-10T20:01:37;25.40;93.00
10306;DHT22;5198;52.382;9.020;2023-06-10T20:05:39;25.30;92.90
10306;DHT22;5198;52.382;9.020;2023-06-10T20:09:44;25.10;93.00
10306;DHT22;5198;52.382;9.020;2023-06-10T20:13:47;24.90;92.80
10306;DHT22;5198;52.382;9.020;2023-06-10T20:17:50;24.80;93.10
10306;DHT22;5198;52.382;9.020;2023-06-10T20:21:55;24.70;92.90
10306;DHT22;5198;52.382;9.020;2023-06-10T20:26:01;24.60;92.70
10306;DHT22;5198;52.382;9.020;2023-06-10T20:34:14;24.30;92.70
10306;DHT22;5198;52.382;9.020;2023-06-10T20:38:17;24.20;93.20
10306;DHT22;5198;52.382;9.020;2023-06-10T20:42:21;24.00;93.40
10306;DHT22;5198;52.382;9.020;2023-06-10T20:46:24;23.90;93.60
10306;DHT22;5198;52.382;9.020;2023-06-10T20:50:27;23.80;94.00
10306;DHT22;5198;52.382;9.020;2023-06-10T20:54:32;23.70;93.20
10306;DHT22;5198;52.382;9.020;2023-06-10T20:58:36;23.50;93.00
10306;DHT22;5198;52.382;9.020;2023-06-10T21:02:39;23.50;93.60
10306;DHT22;5198;52.382;9.020;2023-06-10T21:06:43;23.40;93.10
10306;DHT22;5198;52.382;9.020;2023-06-10T21:10:47;23.30;93.00
10306;DHT22;5198;52.382;9.020;2023-06-10T21:14:52;23.20;93.20
10306;DHT22;5198;52.382;9.020;2023-06-10T21:18:55;23.20;93.50
10306;DHT22;5198;52.382;9.020;2023-06-10T21:22:59;23.10;93.50
10306;DHT22;5198;52.382;9.020;2023-06-10T21:27:03;23.00;93.20
10306;DHT22;5198;52.382;9.020;2023-06-10T21:31:09;23.00;93.10
10306;DHT22;5198;52.382;9.020;2023-06-10T21:35:12;22.90;93.20
10306;DHT22;5198;52.382;9.020;2023-06-10T21:39:15;22.80;93.00
10306;DHT22;5198;52.382;9.020;2023-06-10T21:43:18;22.80;93.60
10306;DHT22;5198;52.382;9.020;2023-06-10T21:47:24;22.70;93.50
10306;DHT22;5198;52.382;9.020;2023-06-10T21:51:27;22.60;93.50
10306;DHT22;5198;52.382;9.020;2023-06-10T21:55:30;22.50;93.60
10306;DHT22;5198;52.382;9.020;2023-06-10T21:59:33;22.50;93.20
10306;DHT22;5198;52.382;9.020;2023-06-10T22:03:39;22.50;93.40
10306;DHT22;5198;52.382;9.020;2023-06-10T22:07:43;22.40;93.50
10306;DHT22;5198;52.382;9.020;2023-06-10T22:11:46;22.30;93.50
10306;DHT22;5198;52.382;9.020;2023-06-10T22:15:49;22.30;93.70
10306;DHT22;5198;52.382;9.020;2023-06-10T22:19:53;22.20;94.10
10306;DHT22;5198;52.382;9.020;2023-06-10T22:23:57;22.20;93.70
10306;DHT22;5198;52.382;9.020;2023-06-10T22:28:00;22.10;93.90
10306;DHT22;5198;52.382;9.020;2023-06-10T22:32:03;22.00;94.10
10306;DHT22;5198;52.382;9.020;2023-06-10T22:36:07;21.90;93.80
10306;DHT22;5198;52.382;9.020;2023-06-10T22:40:12;21.90;93.50
10306;DHT22;5198;52.382;9.020;2023-06-10T22:44:15;21.80;93.50
10306;DHT22;5198;52.382;9.020;2023-06-10T22:48:18;21.80;93.60
10306;DHT22;5198;52.382;9.020;2023-06-10T22:52:22;21.70;93.60
10306;DHT22;5198;52.382;9.020;2023-06-10T22:56:26;21.60;93.60
10306;DHT22;5198;52.382;9.020;2023-06-10T23:00:29;21.60;93.80
10306;DHT22;5198;52.382;9.020;2023-06-10T23:04:32;21.50;93.70
10306;DHT22;5198;52.382;9.020;2023-06-10T23:08:36;21.50;93.60
10306;DHT22;5198;52.382;9.020;2023-06-10T23:12:39;21.40;93.90
10306;DHT22;5198;52.382;9.020;2023-06-10T23:16:42;21.30;94.40
10306;DHT22;5198;52.382;9.020;2023-06-10T23:20:48;21.20;94.10
10306;DHT22;5198;52.382;9.020;2023-06-10T23:24:54;21.20;94.20
10306;DHT22;5198;52.382;9.020;2023-06-10T23:28:58;21.10;94.40
10306;DHT22;5198;52.382;9.020;2023-06-10T23:33:01;21.10;94.30
10306;DHT22;5198;52.382;9.020;2023-06-10T23:37:05;21.00;94.20
10306;DHT22;5198;52.382;9.020;2023-06-10T23:41:14;21.00;94.30
10306;DHT22;5198;52.382;9.020;2023-06-10T23:45:17;20.90;94.50
10306;DHT22;5198;52.382;9.020;2023-06-10T23:49:22;20.80;94.50
10306;DHT22;5198;52.382;9.020;2023-06-10T23:53:25;20.80;95.50
10306;DHT22;5198;52.382;9.020;2023-06-10T23:57:29;20.70;94.60
